Time;durP1;ratioP1;P1;durP2;ratioP2;P2;SDS_P1;SDS_P2;PMS_P1;PMS_P2;Temp;Humidity;BMP_temperature;BMP_pressure;BME280_temperature;BME280_humidity;BME280_pressure;Samples;Min_cycle;Max_cycle;Signal;HPM_P1;HPM_P2
2021/11/11 00:01:24;;;;;;;14.50;8.30;;;8.80;99.90;;;;;;4886982;29;20028;-96
2021/11/11 00:03:50;;;;;;;17.48;7.25;;;8.80;99.90;;;;;;4886210;29;20072;-95
2021/11/11 00:06:16;;;;;;;12.95;7.57;;;8.80;99.90;;;;;;4885924;29;20095;-95
2021/11/11 00:08:41;;;;;;;12.63;7.00;;;8.80;99.90;;;;;;4887173;29;20036;-94
2021/11/11 00:11:07;;;;;;;15.88;7.82;;;8.80;99.90;;;;;;4889211;29;20041;-95
2021/11/11 00:13:33;;;;;;;14.60;7.22;;;8.80;99.90;;;;;;4887379;29;20111;-96
2021/11/11 00:15:58;;;;;;;12.68;6.80;;;8.80;99.90;;;;;;4887404;29;20054;-94
2021/11/11 00:18:24;;;;;;;17.17;7.88;;;8.80;99.90;;;;;;4885325;29;20056;-95
2021/11/11 00:20:50;;;;;;;18.85;8.30;;;8.80;99.90;;;;;;4883514;29;20077;-95
2021/11/11 00:23:15;;;;;;;12.05;7.32;;;8.80;99.90;;;;;;4882772;29;20559;-95
2021/11/11 00:25:41;;;;;;;13.88;8.18;;;8.80;99.90;;;;;;4882993;29;20073;-95
2021/11/11 00:28:07;;;;;;;12.77;7.55;;;8.80;99.90;;;;;;4883580;29;20029;-94
2021/11/11 00:30:34;;;;;;;14.07;8.57;;;8.80;99.90;;;;;;4882631;29;20036;-94
2021/11/11 00:33:02;;;;;;;14.30;7.80;;;8.80;99.90;;;;;;4867276;29;20052;-95
2021/11/11 00:35:29;;;;;;;15.80;7.88;;;8.80;99.90;;;;;;4882769;29;20017;-96
2021/11/11 00:37:58;;;;;;;18.05;8.82;;;8.80;99.90;;;;;;4871900;29;20021;-95
2021/11/11 00:40:27;;;;;;;19.00;8.40;;;8.70;99.90;;;;;;4886285;29;20036;-96
2021/11/11 00:42:53;;;;;;;13.25;8.40;;;8.80;99.90;;;;;;4876763;29;20036;-95
2021/11/11 00:45:19;;;;;;;16.83;8.32;;;8.80;99.90;;;;;;4893821;29;20033;-96
2021/11/11 00:47:46;;;;;;;13.60;8.05;;;8.70;99.90;;;;;;4875432;29;20040;-95
2021/11/11 00:50:13;;;;;;;12.85;8.25;;;8.70;99.90;;;;;;4876005;29;20039;-96
2021/11/11 00:52:42;;;;;;;12.88;7.82;;;8.70;99.90;;;;;;4875674;29;20036;-96
2021/11/11 00:55:10;;;;;;;17.17;8.13;;;8.70;99.90;;;;;;4890544;29;20025;-95
2021/11/11 00:57:35;;;;;;;16.02;7.88;;;8.70;99.90;;;;;;4876613;29;20458;-96
2021/11/11 01:00:02;;;;;;;15.55;7.60;;;8.70;99.90;;;;;;4876104;29;20029;-96
2021/11/11 01:02:28;;;;;;;16.65;7.68;;;8.70;99.90;;;;;;4879800;29;20036;-96
2021/11/11 01:04:54;;;;;;;13.38;7.80;;;8.70;99.90;;;;;;4895528;29;20025;-96
2021/11/11 01:07:20;;;;;;;16.73;7.93;;;8.70;99.90;;;;;;4886687;29;20064;-96
2021/11/11 01:09:45;;;;;;;14.57;7.45;;;8.70;99.90;;;;;;4889120;29;20490;-96
2021/11/11 01:12:11;;;;;;;10.63;6.60;;;8.70;99.90;;;;;;4890727;29;20048;-96
2021/11/11 01:14:37;;;;;;;13.10;7.28;;;8.70;99.90;;;;;;4888833;29;20042;-96
2021/11/11 01:17:05;;;;;;;12.32;7.38;;;8.70;99.90;;;;;;4869816;29;20029;-96
2021/11/11 01:19:30;;;;;;;14.63;7.80;;;8.70;99.90;;;;;;4871201;29;20052;-96
2021/11/11 01:21:57;;;;;;;12.93;7.45;;;8.70;99.90;;;;;;4871558;29;20033;-96
2021/11/11 01:24:24;;;;;;;15.90;7.63;;;8.70;99.90;;;;;;4892333;29;20635;-95
2021/11/11 01:26:50;;;;;;;14.80;7.60;;;8.70;99.90;;;;;;4876940;29;20033;-96
2021/11/11 01:29:16;;;;;;;14.85;8.68;;;8.70;99.90;;;;;;4889847;29;20117;-96
2021/11/11 01:31:42;;;;;;;13.52;7.63;;;8.70;99.90;;;;;;4889755;29;20037;-94
2021/11/11 01:34:07;;;;;;;15.80;8.50;;;8.70;99.90;;;;;;4893384;29;20526;-94
2021/11/11 01:36:33;;;;;;;17.13;7.97;;;8.70;99.90;;;;;;4878187;29;20036;-95
2021/11/11 01:39:00;;;;;;;13.60;7.63;;;8.70;99.90;;;;;;4873771;29;20471;-95
2021/11/11 01:41:26;;;;;;;13.43;8.23;;;8.70;99.90;;;;;;4871144;29;20033;-96
2021/11/11 01:43:52;;;;;;;14.43;7.45;;;8.70;99.90;;;;;;4871973;29;20056;-95
2021/11/11 01:46:17;;;;;;;15.32;8.25;;;8.70;99.90;;;;;;4865330;29;20032;-95
2021/11/11 01:48:43;;;;;;;14.55;7.95;;;8.80;99.90;;;;;;4865655;29;20068;-95
2021/11/11 01:51:09;;;;;;;20.45;8.90;;;8.80;99.90;;;;;;4870885;29;20069;-95
2021/11/11 01:53:35;;;;;;;17.58;8.70;;;8.70;99.90;;;;;;4866262;29;20029;-96
2021/11/11 01:56:01;;;;;;;13.60;7.90;;;8.70;99.90;;;;;;4866949;29;20116;-96
2021/11/11 01:58:27;;;;;;;13.75;8.02;;;8.80;99.90;;;;;;4868962;29;20025;-94
2021/11/11 02:00:58;;;;;;;17.85;8.23;;;8.70;99.90;;;;;;4865517;29;20123;-96
2021/11/11 02:03:23;;;;;;;14.18;7.45;;;8.70;99.90;;;;;;4865655;29;20502;-95
2021/11/11 02:05:50;;;;;;;14.43;7.78;;;8.70;99.90;;;;;;4868289;29;20025;-95
2021/11/11 02:08:17;;;;;;;18.65;8.57;;;8.70;99.90;;;;;;4868484;29;20057;-96
2021/11/11 02:10:43;;;;;;;15.25;8.02;;;8.70;99.90;;;;;;4884856;29;20055;-96
2021/11/11 02:13:10;;;;;;;12.82;7.88;;;8.70;99.90;;;;;;4863965;29;20068;-96
2021/11/11 02:15:36;;;;;;;13.38;7.60;;;8.80;99.90;;;;;;4880076;29;20124;-95
2021/11/11 02:18:05;;;;;;;11.27;7.38;;;8.80;99.90;;;;;;4866061;29;20033;-96
2021/11/11 02:20:36;;;;;;;15.23;7.60;;;8.80;99.90;;;;;;4866683;29;20105;-95
2021/11/11 02:23:04;;;;;;;13.93;7.55;;;8.80;99.90;;;;;;4876418;29;20032;-96
2021/11/11 02:25:30;;;;;;;14.75;8.15;;;8.80;99.90;;;;;;4890118;29;20033;-95
2021/11/11 02:28:02;;;;;;;20.25;8.55;;;8.80;99.90;;;;;;4874380;29;20021;-94
2021/11/11 02:30:31;;;;;;;17.75;8.13;;;8.80;99.90;;;;;;4873425;29;20045;-93
2021/11/11 02:32:57;;;;;;;15.45;7.72;;;8.80;99.90;;;;;;4875147;29;20053;-96
2021/11/11 02:35:24;;;;;;;15.13;8.35;;;8.80;99.90;;;;;;4874977;29;20069;-96
2021/11/11 02:37:51;;;;;;;14.35;6.53;;;8.80;99.90;;;;;;4873628;29;20120;-96
2021/11/11 02:40:26;;;;;;;17.35;7.78;;;8.80;99.90;;;;;;4873600;29;20037;-96
2021/11/11 02:42:52;;;;;;;15.55;7.50;;;8.80;99.90;;;;;;4872403;29;20029;-95
2021/11/11 02:45:29;;;;;;;14.57;8.15;;;8.80;99.90;;;;;;4873484;29;20033;-96
2021/11/11 02:47:58;;;;;;;15.77;7.93;;;8.80;99.90;;;;;;4870406;29;20025;-96
2021/11/11 02:50:25;;;;;;;14.43;7.28;;;8.80;99.90;;;;;;4870092;29;20029;-96
2021/11/11 02:52:53;;;;;;;12.05;7.90;;;8.80;99.90;;;;;;4868227;29;20033;-96
2021/11/11 02:55:19;;;;;;;14.52;7.50;;;8.80;99.90;;;;;;4883762;29;20048;-95
2021/11/11 02:57:47;;;;;;;10.90;7.10;;;8.70;99.90;;;;;;4886096;29;20032;-94
2021/11/11 03:00:26;;;;;;;12.75;6.88;;;8.70;99.90;;;;;;4870673;29;20120;-95
2021/11/11 03:02:53;;;;;;;13.23;7.25;;;8.70;99.90;;;;;;4870792;29;20033;-96
2021/11/11 03:05:21;;;;;;;12.90;7.07;;;8.70;99.90;;;;;;4867728;29;20112;-96
2021/11/11 03:07:47;;;;;;;21.60;7.70;;;8.70;99.90;;;;;;4868286;29;20029;-96
2021/11/11 03:10:16;;;;;;;16.52;7.72;;;8.70;99.90;;;;;;4864548;29;20032;-96
2021/11/11 03:12:43;;;;;;;13.15;7.57;;;8.70;99.90;;;;;;4879873;29;20049;-96
2021/11/11 03:15:11;;;;;;;12.88;6.90;;;8.70;99.90;;;;;;4879725;29;20060;-95
2021/11/11 03:17:38;;;;;;;11.40;7.68;;;8.70;99.90;;;;;;4864543;29;20049;-96
2021/11/11 03:20:04;;;;;;;13.48;7.07;;;8.70;99.90;;;;;;4865317;29;20450;-96
2021/11/11 03:22:30;;;;;;;16.10;8.02;;;8.70;99.90;;;;;;4873756;29;20033;-96
2021/11/11 03:24:57;;;;;;;14.15;7.78;;;8.70;99.90;;;;;;4876032;29;20036;-95
2021/11/11 03:27:23;;;;;;;16.83;7.78;;;8.70;99.90;;;;;;4876530;29;20043;-95
2021/11/11 03:29:50;;;;;;;15.65;8.20;;;8.70;99.90;;;;;;4880954;29;20041;-95
2021/11/11 03:32:16;;;;;;;14.48;7.40;;;8.70;99.90;;;;;;4883042;29;20163;-95
2021/11/11 03:34:42;;;;;;;13.77;7.80;;;8.70;99.90;;;;;;4880203;29;20053;-96
2021/11/11 03:37:09;;;;;;;14.13;8.02;;;8.70;99.90;;;;;;4874090;29;20044;-96
2021/11/11 03:39:35;;;;;;;12.65;7.72;;;8.80;99.90;;;;;;4873210;29;20026;-96
2021/11/11 03:42:03;;;;;;;15.60;7.90;;;8.70;99.90;;;;;;4867999;29;20471;-96
2021/11/11 03:44:29;;;;;;;11.75;6.50;;;8.70;99.90;;;;;;4867797;29;20043;-95
2021/11/11 03:46:57;;;;;;;15.40;7.97;;;8.70;99.90;;;;;;4883449;29;20025;-95
2021/11/11 03:49:23;;;;;;;16.40;8.10;;;8.70;99.90;;;;;;4867968;29;20028;-95
2021/11/11 03:51:49;;;;;;;14.52;8.05;;;8.70;99.90;;;;;;4868169;29;20131;-96
2021/11/11 03:54:19;;;;;;;16.20;9.20;;;8.60;99.90;;;;;;4869953;29;20029;-96
2021/11/11 03:56:47;;;;;;;14.63;7.77;;;8.60;99.90;;;;;;4870571;29;20082;-95
2021/11/11 03:59:13;;;;;;;17.88;8.05;;;8.60;99.90;;;;;;4876056;29;20029;-95
2021/11/11 04:01:40;;;;;;;23.33;8.43;;;8.70;99.90;;;;;;4891277;29;20045;-94
2021/11/11 04:04:06;;;;;;;15.50;8.80;;;8.70;99.90;;;;;;4876667;29;20036;-96
2021/11/11 04:06:32;;;;;;;11.80;6.38;;;8.70;99.90;;;;;;4875953;29;20041;-95
2021/11/11 04:09:01;;;;;;;12.38;7.35;;;8.70;99.90;;;;;;4876848;29;20394;-95
2021/11/11 04:11:28;;;;;;;18.77;8.48;;;8.70;99.90;;;;;;4890510;29;20047;-96
2021/11/11 04:13:54;;;;;;;16.70;8.93;;;8.80;99.90;;;;;;4892498;29;20443;-96
2021/11/11 04:16:20;;;;;;;19.70;9.77;;;8.80;99.90;;;;;;4891424;29;20025;-95
2021/11/11 04:18:46;;;;;;;20.48;9.82;;;8.80;99.90;;;;;;4890628;29;20079;-96
2021/11/11 04:21:12;;;;;;;20.80;9.40;;;8.80;99.90;;;;;;4904459;29;20040;-96
2021/11/11 04:23:37;;;;;;;17.63;7.60;;;8.80;99.90;;;;;;4887416;29;20120;-96
2021/11/11 04:26:15;;;;;;;17.48;8.32;;;8.70;99.90;;;;;;4886985;29;20056;-95
2021/11/11 04:28:49;;;;;;;18.35;9.05;;;8.80;99.90;;;;;;4887013;29;20119;-96
2021/11/11 04:31:30;;;;;;;21.02;9.07;;;8.80;99.90;;;;;;4885624;29;20083;-96
2021/11/11 04:34:01;;;;;;;12.73;7.18;;;8.80;99.90;;;;;;4871037;29;20135;-96
2021/11/11 04:39:44;;;;;;;15.60;8.25;;;8.70;99.90;;;;;;4887527;29;20023;-96
2021/11/11 05:05:51;;;;;;;13.48;8.07;;;8.50;99.90;;;;;;4894680;29;20033;-96
2021/11/11 05:08:17;;;;;;;19.63;8.95;;;8.40;99.90;;;;;;4886638;29;20029;-96
2021/11/11 05:10:43;;;;;;;15.75;7.22;;;8.40;99.90;;;;;;4887464;29;20040;-96
2021/11/11 05:13:09;;;;;;;23.13;10.73;;;8.30;99.90;;;;;;4883994;29;20037;-95
2021/11/11 05:15:35;;;;;;;30.77;13.18;;;8.30;99.90;;;;;;4869263;29;20120;-95
2021/11/11 05:18:01;;;;;;;31.45;15.20;;;8.30;99.90;;;;;;4868722;29;20040;-95
2021/11/11 05:20:26;;;;;;;21.67;9.70;;;8.20;99.90;;;;;;4868064;29;20037;-95
2021/11/11 05:22:52;;;;;;;32.85;13.27;;;8.20;99.90;;;;;;4883375;29;20029;-96
2021/11/11 05:25:18;;;;;;;30.25;13.00;;;8.20;99.90;;;;;;4866585;29;20036;-96
2021/11/11 05:27:44;;;;;;;40.13;15.63;;;8.10;99.90;;;;;;4866538;29;20061;-96
2021/11/11 05:30:12;;;;;;;30.73;13.52;;;8.10;99.90;;;;;;4870828;29;20084;-96
2021/11/11 05:32:38;;;;;;;37.55;15.65;;;8.00;99.90;;;;;;4868923;29;20061;-95
2021/11/11 05:35:07;;;;;;;27.63;11.80;;;8.00;99.90;;;;;;4867860;29;20048;-96
2021/11/11 05:37:33;;;;;;;36.75;15.55;;;7.90;99.90;;;;;;4866028;29;20033;-96
2021/11/11 05:39:59;;;;;;;34.25;14.20;;;7.90;99.90;;;;;;4866601;29;20032;-95
2021/11/11 05:42:25;;;;;;;33.17;13.50;;;7.80;99.90;;;;;;4867733;29;20025;-95
2021/11/11 05:44:51;;;;;;;35.90;13.40;;;7.80;99.90;;;;;;4869108;29;20422;-95
2021/11/11 05:47:17;;;;;;;37.80;15.50;;;7.80;99.90;;;;;;4866914;29;20036;-96
2021/11/11 05:49:43;;;;;;;34.92;15.45;;;7.80;99.90;;;;;;4865719;29;20044;-94
2021/11/11 05:52:10;;;;;;;34.72;14.88;;;7.80;99.90;;;;;;4868470;29;20041;-95
2021/11/11 05:54:39;;;;;;;41.83;16.60;;;7.80;99.90;;;;;;4868888;29;20088;-95
2021/11/11 05:57:06;;;;;;;38.63;15.52;;;7.80;99.90;;;;;;4869134;29;20033;-95
2021/11/11 05:59:32;;;;;;;42.55;16.42;;;7.80;99.90;;;;;;4865931;29;20029;-96
2021/11/11 06:01:59;;;;;;;59.60;14.15;;;7.70;99.90;;;;;;4864714;29;20036;-94
2021/11/11 06:04:24;;;;;;;78.50;13.80;;;7.70;99.90;;;;;;4864821;29;20033;-94
2021/11/11 06:06:50;;;;;;;89.28;13.93;;;7.60;99.90;;;;;;4864743;29;20041;-94
2021/11/11 06:09:16;;;;;;;40.95;11.60;;;7.60;99.90;;;;;;4865082;29;20092;-95
2021/11/11 06:11:42;;;;;;;109.25;15.15;;;7.60;99.90;;;;;;4855156;29;20038;-95
2021/11/11 06:14:07;;;;;;;97.85;14.93;;;7.50;99.90;;;;;;4846290;29;20037;-95
2021/11/11 06:16:33;;;;;;;67.10;14.18;;;7.50;99.90;;;;;;4845537;29;20142;-94
2021/11/11 06:18:59;;;;;;;49.00;13.95;;;7.50;99.90;;;;;;4863686;29;20025;-96
2021/11/11 06:21:25;;;;;;;53.45;15.77;;;7.50;99.90;;;;;;4869960;29;20033;-96
2021/11/11 06:23:53;;;;;;;35.40;14.75;;;7.50;99.90;;;;;;4871456;29;20025;-96
2021/11/11 06:26:22;;;;;;;32.10;12.77;;;7.50;99.90;;;;;;4873822;29;20033;-96
2021/11/11 06:28:49;;;;;;;40.53;13.98;;;7.50;99.90;;;;;;4886857;29;20044;-94
2021/11/11 06:31:16;;;;;;;36.05;13.55;;;7.50;99.90;;;;;;4865885;29;20045;-95
2021/11/11 06:33:42;;;;;;;115.97;16.73;;;7.50;99.90;;;;;;4879803;29;20052;-95
2021/11/11 06:36:08;;;;;;;47.30;13.63;;;7.40;99.90;;;;;;4883125;29;20048;-96
2021/11/11 06:38:34;;;;;;;45.20;13.23;;;7.40;99.90;;;;;;4896763;29;20065;-95
2021/11/11 06:41:00;;;;;;;48.00;14.25;;;7.40;99.90;;;;;;4883633;29;20035;-95
2021/11/11 06:43:27;;;;;;;59.88;15.55;;;7.40;99.90;;;;;;4883319;29;20029;-95
2021/11/11 06:45:53;;;;;;;44.92;15.30;;;7.50;99.90;;;;;;4899727;29;20028;-96
2021/11/11 06:48:18;;;;;;;47.38;15.00;;;7.50;99.90;;;;;;4885575;29;20029;-95
2021/11/11 06:50:45;;;;;;;43.40;15.45;;;7.50;99.90;;;;;;4885556;29;20035;-95
2021/11/11 06:53:13;;;;;;;43.08;14.52;;;7.40;99.90;;;;;;4888000;29;20028;-94
2021/11/11 06:55:40;;;;;;;49.33;16.02;;;7.50;99.90;;;;;;4889163;29;20040;-96
2021/11/11 06:58:06;;;;;;;47.28;15.73;;;7.50;99.90;;;;;;4886899;29;20025;-96
2021/11/11 07:00:32;;;;;;;83.47;15.90;;;7.60;99.90;;;;;;4886132;29;20033;-94
2021/11/11 07:02:58;;;;;;;43.13;13.82;;;7.50;99.90;;;;;;4887951;29;20032;-95
2021/11/11 07:05:24;;;;;;;43.92;15.40;;;7.60;99.90;;;;;;4886842;29;20052;-95
2021/11/11 07:07:49;;;;;;;40.25;16.08;;;7.60;99.90;;;;;;4888316;29;20024;-96
2021/11/11 07:10:15;;;;;;;49.72;15.70;;;7.50;99.90;;;;;;4885174;29;20035;-96
2021/11/11 07:12:41;;;;;;;41.55;15.75;;;7.60;99.90;;;;;;4897342;29;20084;-94
2021/11/11 07:15:17;;;;;;;46.75;14.95;;;7.60;99.90;;;;;;4911120;29;20031;-95
2021/11/11 07:17:47;;;;;;;43.75;14.27;;;7.60;99.90;;;;;;4915242;29;20037;-95
2021/11/11 07:20:16;;;;;;;149.15;18.15;;;7.60;99.90;;;;;;4913518;29;20061;-94
2021/11/11 07:22:43;;;;;;;51.30;16.40;;;7.60;99.90;;;;;;4896922;29;20514;-96
2021/11/11 07:25:10;;;;;;;47.97;15.85;;;7.60;99.90;;;;;;4899524;29;20016;-94
2021/11/11 07:27:37;;;;;;;54.45;17.42;;;7.60;99.90;;;;;;4891235;29;20043;-95
2021/11/11 07:30:11;;;;;;;66.63;18.30;;;7.60;99.90;;;;;;4922543;29;20042;-96
2021/11/11 07:32:51;;;;;;;73.20;19.63;;;7.60;99.90;;;;;;4897331;29;20096;-95
2021/11/11 07:35:27;;;;;;;100.13;20.73;;;7.50;99.90;;;;;;4887565;29;20029;-93
2021/11/11 07:37:54;;;;;;;120.97;17.52;;;7.60;99.90;;;;;;4918501;29;20312;-92
2021/11/11 07:40:23;;;;;;;81.53;20.35;;;7.50;99.90;;;;;;4898047;29;20048;-96
2021/11/11 07:42:50;;;;;;;53.53;16.35;;;7.50;99.90;;;;;;4892475;29;20033;-96
2021/11/11 07:45:19;;;;;;;76.30;18.42;;;7.50;99.90;;;;;;4889320;29;20088;-94
2021/11/11 07:47:54;;;;;;;62.72;18.52;;;7.50;99.90;;;;;;4879383;29;20023;-96
2021/11/11 07:50:20;;;;;;;92.70;19.50;;;7.60;99.90;;;;;;4887598;29;20491;-95
2021/11/11 07:52:46;;;;;;;94.85;18.92;;;7.60;99.90;;;;;;4891487;29;20039;-96
2021/11/11 07:55:12;;;;;;;67.07;18.77;;;7.60;99.90;;;;;;4908649;29;20263;-95
2021/11/11 07:57:38;;;;;;;131.30;20.63;;;7.60;99.90;;;;;;4889489;29;20036;-96
2021/11/11 08:00:08;;;;;;;141.60;19.05;;;7.60;99.90;;;;;;4888888;29;20025;-96
2021/11/11 08:02:34;;;;;;;199.93;23.00;;;7.60;99.90;;;;;;4889860;29;20077;-95
2021/11/11 08:05:00;;;;;;;75.57;21.27;;;7.60;99.90;;;;;;4889870;29;20048;-96
2021/11/11 08:07:27;;;;;;;111.47;19.67;;;7.60;99.90;;;;;;4887554;29;20033;-94
2021/11/11 08:09:52;;;;;;;74.15;18.48;;;7.60;99.90;;;;;;4881302;29;20037;-95
2021/11/11 08:12:19;;;;;;;135.82;23.38;;;7.60;99.90;;;;;;4881889;29;20383;-93
2021/11/11 08:14:45;;;;;;;93.68;19.67;;;7.60;99.90;;;;;;4884286;29;20033;-93
2021/11/11 08:17:11;;;;;;;133.50;18.67;;;7.60;99.90;;;;;;4884260;29;20024;-95
2021/11/11 08:19:41;;;;;;;158.20;21.92;;;7.60;99.90;;;;;;4883581;29;20056;-94
2021/11/11 08:22:07;;;;;;;86.07;19.27;;;7.60;99.90;;;;;;4884227;29;20047;-95
2021/11/11 08:24:40;;;;;;;85.40;20.48;;;7.60;99.90;;;;;;4890788;29;20396;-95
2021/11/11 08:27:06;;;;;;;102.30;20.85;;;7.60;99.90;;;;;;4886184;29;20033;-94
2021/11/11 08:29:32;;;;;;;95.97;22.23;;;7.70;99.90;;;;;;4885292;29;20029;-92
2021/11/11 08:31:58;;;;;;;90.65;21.70;;;7.70;99.90;;;;;;4885703;29;20523;-94
2021/11/11 08:34:24;;;;;;;132.50;21.55;;;7.70;99.90;;;;;;4886643;29;20049;-94
2021/11/11 08:36:49;;;;;;;96.43;18.90;;;7.80;99.90;;;;;;4886092;29;20502;-94
2021/11/11 08:39:15;;;;;;;360.98;26.77;;;7.80;99.90;;;;;;4888870;29;20033;-94
2021/11/11 08:41:40;;;;;;;76.03;20.73;;;7.70;99.90;;;;;;4893999;29;20033;-95
2021/11/11 08:44:06;;;;;;;81.25;20.75;;;7.70;99.90;;;;;;4893726;29;20025;-93
2021/11/11 08:46:32;;;;;;;125.38;20.90;;;7.70;99.90;;;;;;4891495;29;20056;-94
2021/11/11 08:48:58;;;;;;;80.90;20.45;;;7.70;99.90;;;;;;4893388;29;20048;-93
2021/11/11 08:51:23;;;;;;;61.97;19.85;;;7.80;99.90;;;;;;4891754;29;20036;-95
2021/11/11 08:53:49;;;;;;;74.65;20.75;;;7.80;99.90;;;;;;4891936;29;20057;-96
2021/11/11 08:56:15;;;;;;;65.10;18.25;;;7.80;99.90;;;;;;4887663;29;20092;-94
2021/11/11 08:58:41;;;;;;;70.80;19.60;;;7.80;99.90;;;;;;4889648;29;20091;-96
2021/11/11 09:01:18;;;;;;;61.28;20.17;;;7.80;99.90;;;;;;4886588;29;20016;-96
2021/11/11 09:03:44;;;;;;;75.47;19.15;;;7.80;99.90;;;;;;4886407;29;20034;-94
2021/11/11 09:06:14;;;;;;;72.32;16.98;;;7.80;99.90;;;;;;4899062;29;20092;-94
2021/11/11 09:08:39;;;;;;;57.15;18.42;;;7.80;99.90;;;;;;4898184;29;20032;-96
2021/11/11 09:11:05;;;;;;;71.60;17.00;;;7.80;99.90;;;;;;4895908;29;20043;-96
2021/11/11 09:13:32;;;;;;;57.58;17.23;;;7.80;99.90;;;;;;4887417;29;20496;-96
2021/11/11 09:16:02;;;;;;;65.93;16.45;;;7.80;99.90;;;;;;4878461;29;20033;-95
2021/11/11 09:18:28;;;;;;;60.67;18.23;;;7.80;99.90;;;;;;4880644;29;20021;-96
2021/11/11 09:20:54;;;;;;;71.10;16.95;;;7.90;99.90;;;;;;4880247;29;20028;-96
2021/11/11 09:23:20;;;;;;;60.72;17.23;;;7.80;99.90;;;;;;4877642;29;20104;-96
2021/11/11 09:25:48;;;;;;;69.90;17.23;;;7.90;99.90;;;;;;4876175;29;20036;-96
2021/11/11 09:28:14;;;;;;;58.35;15.77;;;7.90;99.90;;;;;;4876626;29;20031;-95
2021/11/11 09:30:40;;;;;;;79.55;16.17;;;7.90;99.90;;;;;;4875431;29;20072;-96
2021/11/11 09:33:09;;;;;;;53.58;15.57;;;7.90;99.90;;;;;;4867574;29;20083;-95
2021/11/11 09:35:35;;;;;;;65.60;18.52;;;7.80;99.90;;;;;;4857471;29;20021;-96
2021/11/11 09:38:02;;;;;;;69.10;16.73;;;7.80;99.90;;;;;;4855520;29;20554;-95
2021/11/11 09:40:29;;;;;;;60.28;16.10;;;7.90;99.90;;;;;;4857242;29;20479;-95
2021/11/11 09:42:56;;;;;;;53.42;15.13;;;7.90;99.90;;;;;;4858307;29;20484;-96
2021/11/11 09:45:26;;;;;;;56.40;16.17;;;7.90;99.90;;;;;;4856380;29;20061;-96
2021/11/11 09:47:52;;;;;;;54.67;14.82;;;7.90;99.90;;;;;;4857166;29;20047;-95
2021/11/11 09:50:20;;;;;;;76.43;17.20;;;7.90;99.90;;;;;;4854747;29;20085;-95
2021/11/11 09:52:49;;;;;;;71.47;16.33;;;7.90;99.90;;;;;;4855933;29;20089;-96
2021/11/11 10:00:50;;;;;;;40.97;15.00;;;7.90;99.90;;;;;;4876696;29;20125;-95
2021/11/11 10:03:20;;;;;;;40.33;13.73;;;7.90;99.90;;;;;;4856446;29;20024;-95
2021/11/11 10:05:46;;;;;;;57.33;16.83;;;7.90;99.90;;;;;;4854512;29;20053;-96
2021/11/11 10:08:31;;;;;;;85.13;16.88;;;7.90;99.90;;;;;;4858180;29;20042;-95
2021/11/11 10:10:57;;;;;;;82.40;17.23;;;7.90;99.90;;;;;;4862936;29;20193;-96
2021/11/11 10:13:23;;;;;;;38.75;13.77;;;7.90;99.90;;;;;;4858906;29;20519;-96
2021/11/11 10:16:28;;;;;;;52.40;16.20;;;7.90;99.90;;;;;;4862818;29;20025;-95
2021/11/11 10:19:05;;;;;;;63.10;13.65;;;8.00;99.90;;;;;;4863927;29;20013;-94
2021/11/11 10:24:36;;;;;;;37.15;12.80;;;8.00;99.90;;;;;;4888392;29;20040;-95
2021/11/11 10:27:23;;;;;;;47.97;13.68;;;8.00;99.90;;;;;;4877476;29;20043;-95
2021/11/11 10:29:54;;;;;;;62.33;12.95;;;8.00;99.90;;;;;;4862066;29;20035;-94
2021/11/11 10:32:31;;;;;;;34.53;13.43;;;8.00;99.90;;;;;;4879760;29;20032;-95
2021/11/11 10:35:19;;;;;;;34.05;12.88;;;7.90;99.90;;;;;;4887168;29;20037;-95
2021/11/11 10:37:58;;;;;;;39.22;14.00;;;8.00;99.90;;;;;;4872496;29;20391;-95
2021/11/11 10:40:36;;;;;;;27.52;12.43;;;8.00;99.90;;;;;;4872079;29;20108;-94
2021/11/11 10:43:11;;;;;;;33.58;13.77;;;8.10;99.90;;;;;;4871655;29;20059;-96
2021/11/11 10:45:44;;;;;;;36.55;13.35;;;8.20;99.90;;;;;;4871479;29;20095;-96
2021/11/11 10:48:12;;;;;;;41.55;14.50;;;8.20;99.90;;;;;;4871638;29;20037;-95
2021/11/11 10:50:45;;;;;;;39.47;14.07;;;8.20;99.90;;;;;;4887558;29;20029;-95
2021/11/11 10:53:14;;;;;;;33.85;12.32;;;8.30;99.90;;;;;;4872546;29;20029;-96
2021/11/11 10:55:51;;;;;;;35.78;12.98;;;8.30;99.90;;;;;;4867535;29;20048;-94
2021/11/11 10:58:26;;;;;;;34.55;14.45;;;8.30;99.90;;;;;;4862824;29;20037;-94
2021/11/11 11:01:05;;;;;;;36.22;15.40;;;8.40;99.90;;;;;;4863351;29;20382;-95
2021/11/11 11:03:45;;;;;;;36.30;13.93;;;8.40;99.90;;;;;;4862337;29;20040;-95
2021/11/11 11:06:20;;;;;;;32.35;14.07;;;8.50;99.90;;;;;;4863135;29;20056;-95
2021/11/11 11:08:52;;;;;;;36.08;14.48;;;8.60;99.90;;;;;;4862347;29;20509;-94
2021/11/11 11:11:30;;;;;;;33.78;13.68;;;8.60;99.90;;;;;;4862838;29;20033;-95
2021/11/11 11:14:26;;;;;;;29.83;13.18;;;8.60;99.90;;;;;;4862931;29;20060;-95
2021/11/11 11:16:52;;;;;;;26.40;10.82;;;8.60;99.90;;;;;;4878050;29;20049;-96
2021/11/11 11:19:19;;;;;;;22.23;11.60;;;8.70;99.90;;;;;;4862992;29;20025;-95
2021/11/11 11:21:53;;;;;;;27.85;12.05;;;8.70;99.90;;;;;;4862928;29;20036;-95
2021/11/11 11:24:31;;;;;;;23.05;10.98;;;8.70;99.90;;;;;;4862654;29;20025;-95
2021/11/11 11:27:04;;;;;;;22.58;10.15;;;8.80;99.90;;;;;;4862950;29;20033;-95
2021/11/11 11:29:56;;;;;;;23.77;11.00;;;8.80;99.90;;;;;;4862112;29;20089;-94
2021/11/11 11:32:30;;;;;;;27.83;10.35;;;8.80;99.90;;;;;;4866819;29;20472;-95
2021/11/11 11:34:59;;;;;;;21.33;10.55;;;8.80;99.90;;;;;;4871317;29;20029;-96
2021/11/11 11:37:28;;;;;;;21.38;11.50;;;8.80;99.90;;;;;;4867796;29;20025;-94
2021/11/11 11:40:09;;;;;;;22.52;10.38;;;8.80;99.90;;;;;;4867739;29;20116;-95
2021/11/11 11:42:41;;;;;;;23.75;11.48;;;8.90;99.90;;;;;;4865462;29;20033;-95
2021/11/11 11:45:19;;;;;;;22.30;9.80;;;8.90;99.90;;;;;;4862230;29;20033;-95
2021/11/11 11:48:18;;;;;;;29.10;12.68;;;9.00;99.90;;;;;;4866672;29;20028;-95
2021/11/11 11:50:59;;;;;;;19.85;9.52;;;9.10;99.90;;;;;;4866915;29;20041;-96
2021/11/11 11:53:38;;;;;;;;;;;9.10;99.90;;;;;;4862291;29;20037;-94
2021/11/11 11:56:13;;;;;;;22.73;10.85;;;9.20;99.90;;;;;;4884118;29;20254;-95
2021/11/11 11:58:45;;;;;;;21.27;10.70;;;9.30;99.90;;;;;;4851407;29;20495;-95
2021/11/11 12:12:12;;;;;;;19.15;9.27;;;9.40;99.90;;;;;;4883728;29;20033;-94
2021/11/11 12:14:56;;;;;;;19.38;9.13;;;9.40;99.90;;;;;;4883266;29;20120;-95
2021/11/11 12:39:53;;;;;;;20.65;10.73;;;9.80;99.90;;;;;;4901307;29;20067;-92
2021/11/11 12:42:41;;;;;;;21.73;11.07;;;9.80;99.90;;;;;;4903415;29;20112;-93
2021/11/11 12:45:34;;;;;;;21.33;11.13;;;9.90;99.90;;;;;;4873611;29;20048;-93
2021/11/11 12:48:23;;;;;;;20.13;11.02;;;10.00;99.90;;;;;;4888903;29;20069;-94
2021/11/11 12:51:03;;;;;;;21.50;10.45;;;10.00;99.90;;;;;;4865616;29;20115;-93
2021/11/11 12:53:34;;;;;;;18.77;10.05;;;10.10;99.90;;;;;;4903844;29;20033;-94
2021/11/11 12:56:00;;;;;;;23.25;10.10;;;10.10;99.90;;;;;;4897499;29;20025;-94
2021/11/11 12:58:36;;;;;;;17.25;9.90;;;10.10;99.90;;;;;;4881431;29;20084;-93
2021/11/11 13:01:11;;;;;;;19.85;10.57;;;10.10;99.90;;;;;;4915333;29;20502;-95
2021/11/11 13:04:10;;;;;;;22.20;11.10;;;10.10;99.90;;;;;;4916737;29;20060;-94
2021/11/11 13:07:01;;;;;;;18.02;10.07;;;10.20;99.90;;;;;;4881617;29;20033;-93
2021/11/11 13:09:29;;;;;;;21.50;10.15;;;10.20;99.90;;;;;;4896633;29;20029;-94
2021/11/11 13:12:09;;;;;;;20.08;11.73;;;10.20;99.90;;;;;;4909234;29;20041;-95
2021/11/11 13:15:19;;;;;;;21.75;10.57;;;10.20;99.90;;;;;;4899125;29;20108;-94
2021/11/11 13:17:49;;;;;;;23.87;11.43;;;10.20;99.90;;;;;;4828155;29;20045;-95
2021/11/11 13:20:35;;;;;;;21.20;10.23;;;10.30;99.90;;;;;;4828027;29;20800;-96
2021/11/11 13:23:19;;;;;;;17.88;9.95;;;10.30;99.90;;;;;;4827931;29;20040;-93
2021/11/11 13:26:07;;;;;;;17.75;10.10;;;10.20;99.90;;;;;;4827813;29;20045;-94
2021/11/11 13:43:35;;;;;;;16.52;9.50;;;10.20;99.90;;;;;;4827138;29;20505;-95
2021/11/11 16:27:17;;;;;;;28.42;13.15;;;11.00;99.90;;;;;;4883778;29;20036;-95
2021/11/11 16:29:44;;;;;;;27.80;14.15;;;11.00;99.90;;;;;;4897877;29;20037;-96
2021/11/11 16:32:10;;;;;;;27.10;13.18;;;11.00;99.90;;;;;;4881549;29;20123;-95
2021/11/11 16:34:36;;;;;;;22.85;12.10;;;11.00;99.90;;;;;;4897732;29;20141;-96
2021/11/11 16:37:05;;;;;;;39.35;15.57;;;11.00;99.90;;;;;;4882332;29;20558;-95
2021/11/11 16:39:31;;;;;;;19.73;8.98;;;11.00;99.90;;;;;;4882610;29;20184;-95
2021/11/11 16:41:56;;;;;;;11.13;5.85;;;11.00;99.90;;;;;;4898224;29;20486;-95
2021/11/11 16:44:23;;;;;;;9.82;5.63;;;10.90;99.90;;;;;;4882396;29;20121;-95
2021/11/11 16:46:49;;;;;;;16.15;7.60;;;10.90;99.90;;;;;;4897884;29;20033;-96
2021/11/11 16:49:15;;;;;;;12.15;6.10;;;10.90;99.90;;;;;;4898016;29;20054;-95
2021/11/11 16:51:42;;;;;;;9.48;5.80;;;10.90;99.90;;;;;;4867150;29;20045;-94
2021/11/11 16:54:08;;;;;;;10.00;5.78;;;10.90;99.90;;;;;;4897751;29;20033;-95
2021/11/11 16:56:34;;;;;;;14.65;5.85;;;10.90;99.90;;;;;;4897541;29;20032;-95